Time;durP1;ratioP1;P1;durP2;ratioP2;P2;SDS_P1;SDS_P2;PMS_P1;PMS_P2;Temp;Humidity;BMP_temperature;BMP_pressure;BME280_temperature;BME280_humidity;BME280_pressure;Samples;Min_cycle;Max_cycle;Signal;HPM_P1;HPM_P2
2021/11/07 00:09:35;;;;;;;6.68;6.50;;;;;;;;;;5026479;28;20042;-44
2021/11/07 00:12:13;;;;;;;8.88;8.52;;;;;;;;;;5025228;28;20077;-44
2021/11/07 00:14:40;;;;;;;10.32;10.13;;;;;;;;;;5021864;28;20044;-44
2021/11/07 00:17:07;;;;;;;10.98;10.88;;;;;;;;;;5032410;28;20129;-42
2021/11/07 00:19:41;;;;;;;10.88;10.77;;;;;;;;;;5027260;28;20437;-43
2021/11/07 00:24:44;;;;;;;12.40;12.30;;;;;;;;;;5026835;28;20069;-42
2021/11/07 00:30:00;;;;;;;11.70;11.60;;;;;;;;;;5030800;28;20069;-42
2021/11/07 00:38:15;;;;;;;16.40;15.93;;;;;;;;;;5021218;28;20060;-43
2021/11/07 00:40:53;;;;;;;15.55;15.25;;;;;;;;;;5029618;28;20107;-43
2021/11/07 00:43:33;;;;;;;15.73;15.35;;;;;;;;;;5029801;28;20498;-43
2021/11/07 00:46:17;;;;;;;13.82;13.57;;;;;;;;;;5030471;28;20068;-42
2021/11/07 00:48:53;;;;;;;16.63;16.35;;;;;;;;;;5028662;28;20576;-44
2021/11/07 00:54:07;;;;;;;15.20;14.75;;;;;;;;;;5021066;28;20402;-42
2021/11/07 01:01:31;;;;;;;12.82;12.52;;;;;;;;;;5028123;28;20470;-42
2021/11/07 01:04:00;;;;;;;14.27;14.05;;;;;;;;;;5030119;28;20088;-43
2021/11/07 01:06:27;;;;;;;15.68;14.73;;;;;;;;;;5022183;28;20052;-44
2021/11/07 01:08:54;;;;;;;14.10;13.57;;;;;;;;;;5021191;28;20466;-43
2021/11/07 01:11:21;;;;;;;12.65;12.30;;;;;;;;;;5031246;28;20041;-42
2021/11/07 01:13:48;;;;;;;16.02;15.70;;;;;;;;;;5026507;28;20053;-43
2021/11/07 01:16:16;;;;;;;16.08;15.70;;;;;;;;;;5028749;28;20070;-45
2021/11/07 01:18:43;;;;;;;13.55;13.20;;;;;;;;;;5026760;28;20123;-43
2021/11/07 01:21:13;;;;;;;14.93;14.65;;;;;;;;;;5020108;28;20149;-46
2021/11/07 01:23:51;;;;;;;16.20;15.80;;;;;;;;;;5029913;28;20069;-43
2021/11/07 01:26:29;;;;;;;17.52;16.60;;;;;;;;;;5026681;28;20046;-43
2021/11/07 01:29:10;;;;;;;15.00;14.85;;;;;;;;;;5028583;28;20116;-43
2021/11/07 01:31:38;;;;;;;16.00;15.70;;;;;;;;;;5026251;28;20120;-45
2021/11/07 01:34:08;;;;;;;15.93;15.70;;;;;;;;;;5022435;28;20498;-43
2021/11/07 01:36:43;;;;;;;15.10;14.95;;;;;;;;;;5012715;28;20042;-47
2021/11/07 01:39:19;;;;;;;15.27;14.85;;;;;;;;;;5029014;28;20053;-44
2021/11/07 01:44:38;;;;;;;15.40;15.10;;;;;;;;;;5029630;28;20049;-45
2021/11/07 01:47:06;;;;;;;15.00;14.35;;;;;;;;;;5027026;28;20048;-43
2021/11/07 01:49:37;;;;;;;13.77;13.13;;;;;;;;;;5028975;28;20037;-44
2021/11/07 01:52:07;;;;;;;14.45;14.13;;;;;;;;;;5028930;28;20099;-43
2021/11/07 01:54:47;;;;;;;12.73;12.63;;;;;;;;;;5027739;28;20236;-43
2021/11/07 01:57:16;;;;;;;15.82;15.35;;;;;;;;;;5025248;28;20520;-43
2021/11/07 01:59:46;;;;;;;15.27;14.98;;;;;;;;;;5025649;28;20076;-43
2021/11/07 02:02:14;;;;;;;15.38;15.10;;;;;;;;;;5015078;28;20037;-44
2021/11/07 02:04:42;;;;;;;15.20;14.80;;;;;;;;;;5026907;28;20038;-46
2021/11/07 02:07:09;;;;;;;14.55;14.35;;;;;;;;;;5028027;28;20060;-43
2021/11/07 02:09:37;;;;;;;15.57;15.02;;;;;;;;;;5028516;28;20041;-45
2021/11/07 02:12:06;;;;;;;11.90;11.55;;;;;;;;;;5026346;28;20037;-43
2021/11/07 02:14:33;;;;;;;14.32;14.23;;;;;;;;;;5028332;28;20038;-44
2021/11/07 02:17:00;;;;;;;13.20;12.90;;;;;;;;;;5021308;28;20040;-43
2021/11/07 02:19:28;;;;;;;13.88;13.57;;;;;;;;;;5019587;28;20132;-46
2021/11/07 02:21:55;;;;;;;16.20;15.63;;;;;;;;;;5029807;28;20052;-43
2021/11/07 02:24:22;;;;;;;16.00;15.80;;;;;;;;;;5027683;28;20660;-45
2021/11/07 02:26:52;;;;;;;15.80;15.05;;;;;;;;;;5018726;28;20034;-42
2021/11/07 02:29:20;;;;;;;16.15;15.95;;;;;;;;;;5028293;28;20042;-43
2021/11/07 02:31:48;;;;;;;17.30;16.95;;;;;;;;;;5028060;28;20041;-46
2021/11/07 02:34:16;;;;;;;16.40;16.00;;;;;;;;;;5028557;28;20061;-44
2021/11/07 02:36:44;;;;;;;17.27;16.85;;;;;;;;;;5027200;28;20068;-43
2021/11/07 02:39:13;;;;;;;16.73;16.23;;;;;;;;;;5021625;28;20053;-46
2021/11/07 02:41:40;;;;;;;14.55;14.45;;;;;;;;;;5024749;28;20045;-47
2021/11/07 02:44:07;;;;;;;15.88;15.57;;;;;;;;;;5016401;28;20057;-43
2021/11/07 02:46:34;;;;;;;16.02;15.93;;;;;;;;;;5027006;28;20044;-42
2021/11/07 02:49:02;;;;;;;15.32;15.23;;;;;;;;;;5026802;28;20542;-43
2021/11/07 02:51:33;;;;;;;14.85;14.75;;;;;;;;;;5023681;28;20107;-44
2021/11/07 02:54:03;;;;;;;16.02;15.82;;;;;;;;;;5027814;28;20045;-42
2021/11/07 02:56:30;;;;;;;15.60;15.40;;;;;;;;;;5016121;28;20064;-43
2021/11/07 02:58:57;;;;;;;13.32;13.18;;;;;;;;;;5027960;28;20061;-43
2021/11/07 03:01:25;;;;;;;14.40;14.20;;;;;;;;;;5027601;28;20049;-45
2021/11/07 03:03:59;;;;;;;14.25;14.15;;;;;;;;;;5027730;28;20125;-42
2021/11/07 03:06:29;;;;;;;15.05;14.95;;;;;;;;;;5027512;28;20128;-43
2021/11/07 03:08:56;;;;;;;16.13;15.70;;;;;;;;;;5022862;28;20041;-42
2021/11/07 03:11:23;;;;;;;14.88;14.57;;;;;;;;;;5031525;28;20038;-44
2021/11/07 03:13:50;;;;;;;15.90;15.70;;;;;;;;;;5032205;28;20103;-43
2021/11/07 03:16:17;;;;;;;15.75;15.55;;;;;;;;;;5031769;28;20072;-44
2021/11/07 03:18:44;;;;;;;15.63;15.50;;;;;;;;;;5029894;28;20111;-44
2021/11/07 03:21:14;;;;;;;15.50;15.20;;;;;;;;;;5024828;28;20045;-45
2021/11/07 03:23:49;;;;;;;14.48;14.27;;;;;;;;;;5031807;28;20069;-44
2021/11/07 03:26:25;;;;;;;12.10;12.00;;;;;;;;;;5031875;28;20025;-43
2021/11/07 03:28:56;;;;;;;14.68;14.48;;;;;;;;;;5033348;28;20107;-43
2021/11/07 03:34:17;;;;;;;14.73;14.43;;;;;;;;;;5031726;28;20149;-44
2021/11/07 03:36:47;;;;;;;13.45;13.23;;;;;;;;;;5023296;28;20041;-44
2021/11/07 03:39:14;;;;;;;12.85;12.75;;;;;;;;;;5025975;28;20069;-44
2021/11/07 03:41:42;;;;;;;14.52;14.32;;;;;;;;;;5032319;28;20045;-42
2021/11/07 03:44:09;;;;;;;15.25;15.05;;;;;;;;;;5030761;28;20529;-46
2021/11/07 03:46:36;;;;;;;12.85;12.75;;;;;;;;;;5031113;28;20091;-42
2021/11/07 03:49:04;;;;;;;12.68;12.57;;;;;;;;;;5029904;28;20084;-45
2021/11/07 03:51:31;;;;;;;13.10;12.90;;;;;;;;;;5030950;28;20092;-43
2021/11/07 03:53:58;;;;;;;13.52;13.35;;;;;;;;;;5031967;28;20076;-43
2021/11/07 03:56:25;;;;;;;16.02;15.63;;;;;;;;;;5028709;28;20117;-42
2021/11/07 03:58:53;;;;;;;13.80;13.70;;;;;;;;;;5029057;28;20386;-44
2021/11/07 04:01:19;;;;;;;17.10;16.70;;;;;;;;;;5029855;28;20049;-44
2021/11/07 04:03:46;;;;;;;14.95;14.85;;;;;;;;;;5023034;28;20103;-46
2021/11/07 04:06:13;;;;;;;15.48;15.18;;;;;;;;;;5017019;28;20037;-43
2021/11/07 04:08:40;;;;;;;16.27;16.08;;;;;;;;;;5026554;28;20048;-44
2021/11/07 04:11:08;;;;;;;16.15;15.85;;;;;;;;;;5030751;28;20026;-44
2021/11/07 04:13:38;;;;;;;14.10;14.00;;;;;;;;;;5030827;28;20124;-44
2021/11/07 04:16:06;;;;;;;13.40;13.27;;;;;;;;;;5023452;28;20103;-42
2021/11/07 04:18:34;;;;;;;14.38;14.27;;;;;;;;;;5029518;28;20700;-43
2021/11/07 04:21:01;;;;;;;12.60;12.50;;;;;;;;;;5027780;28;20559;-43
2021/11/07 04:23:28;;;;;;;14.85;14.43;;;;;;;;;;5015501;28;20103;-43
2021/11/07 04:25:55;;;;;;;13.68;13.32;;;;;;;;;;5031055;28;20037;-42
2021/11/07 04:28:21;;;;;;;11.88;11.73;;;;;;;;;;5023387;28;20042;-43
2021/11/07 04:30:48;;;;;;;14.45;14.25;;;;;;;;;;5023515;28;20100;-44
2021/11/07 04:33:15;;;;;;;13.50;13.40;;;;;;;;;;5023826;28;20416;-45
2021/11/07 04:35:41;;;;;;;13.68;13.48;;;;;;;;;;5030087;28;20508;-43
2021/11/07 04:38:08;;;;;;;14.75;14.18;;;;;;;;;;5028347;28;20072;-43
2021/11/07 04:40:35;;;;;;;15.43;15.32;;;;;;;;;;5028902;28;20049;-42
2021/11/07 04:43:02;;;;;;;14.95;14.55;;;;;;;;;;5027239;28;20107;-45
2021/11/07 04:45:28;;;;;;;15.70;15.60;;;;;;;;;;5023763;28;20433;-45
2021/11/07 04:47:57;;;;;;;15.18;15.07;;;;;;;;;;5016011;28;20045;-43
2021/11/07 04:50:24;;;;;;;16.35;15.95;;;;;;;;;;5027802;28;20045;-43
2021/11/07 04:52:51;;;;;;;15.05;14.95;;;;;;;;;;5030521;28;20121;-45
2021/11/07 04:55:18;;;;;;;14.75;14.43;;;;;;;;;;5031662;28;20061;-44
2021/11/07 04:57:45;;;;;;;15.07;14.98;;;;;;;;;;5021382;28;20513;-46
2021/11/07 05:00:19;;;;;;;13.50;13.40;;;;;;;;;;5030287;28;20037;-43
2021/11/07 05:02:50;;;;;;;15.20;15.10;;;;;;;;;;5027647;28;20037;-44
2021/11/07 05:05:17;;;;;;;13.80;13.70;;;;;;;;;;5030169;28;20087;-45
2021/11/07 05:07:44;;;;;;;15.05;14.95;;;;;;;;;;5029572;28;20478;-46
2021/11/07 05:10:12;;;;;;;14.55;14.45;;;;;;;;;;5023728;28;20045;-45
2021/11/07 05:12:38;;;;;;;14.45;14.18;;;;;;;;;;5029442;28;20073;-43
2021/11/07 05:15:05;;;;;;;15.40;15.30;;;;;;;;;;5027866;28;20084;-47
2021/11/07 05:17:32;;;;;;;14.68;14.57;;;;;;;;;;5030634;28;20041;-44
2021/11/07 05:19:59;;;;;;;12.93;12.82;;;;;;;;;;5030302;28;20500;-45
2021/11/07 05:22:26;;;;;;;15.50;15.30;;;;;;;;;;5028778;28;20041;-44
2021/11/07 05:24:53;;;;;;;11.93;11.82;;;;;;;;;;5029848;28;20489;-44
2021/11/07 05:27:20;;;;;;;14.40;14.20;;;;;;;;;;5028908;28;20061;-44
2021/11/07 05:29:47;;;;;;;14.55;14.45;;;;;;;;;;5030071;28;20037;-43
2021/11/07 05:32:14;;;;;;;15.35;15.05;;;;;;;;;;5028107;28;20433;-44
2021/11/07 05:34:41;;;;;;;13.43;13.32;;;;;;;;;;5028819;28;20033;-44
2021/11/07 05:37:08;;;;;;;12.13;11.93;;;;;;;;;;5027048;28;20046;-45
2021/11/07 05:39:35;;;;;;;11.15;11.05;;;;;;;;;;5020900;28;20037;-43
2021/11/07 05:42:03;;;;;;;8.93;8.82;;;;;;;;;;5029450;28;20132;-43
2021/11/07 05:44:30;;;;;;;11.52;11.40;;;;;;;;;;5028555;28;20520;-46
2021/11/07 05:46:58;;;;;;;11.10;11.00;;;;;;;;;;5028554;28;20044;-47
2021/11/07 05:49:25;;;;;;;7.57;7.47;;;;;;;;;;5030235;28;20037;-44
2021/11/07 05:51:52;;;;;;;13.95;13.57;;;;;;;;;;5021549;28;20041;-43
2021/11/07 05:54:19;;;;;;;15.18;14.98;;;;;;;;;;5035601;28;20448;-45
2021/11/07 05:56:46;;;;;;;17.73;17.17;;;;;;;;;;5032283;28;20037;-45
2021/11/07 05:59:13;;;;;;;14.73;14.43;;;;;;;;;;5029895;28;20065;-44
2021/11/07 06:01:39;;;;;;;14.48;14.20;;;;;;;;;;5028568;28;20068;-44
2021/11/07 06:04:06;;;;;;;13.45;13.25;;;;;;;;;;5023158;28;20068;-44
2021/11/07 06:06:33;;;;;;;13.35;13.02;;;;;;;;;;5022089;28;20785;-44
2021/11/07 06:09:00;;;;;;;12.20;12.00;;;;;;;;;;5026569;28;20045;-45
2021/11/07 06:11:27;;;;;;;12.40;12.30;;;;;;;;;;5031153;28;20022;-45
2021/11/07 06:13:55;;;;;;;13.20;13.00;;;;;;;;;;5024472;28;20061;-44
2021/11/07 06:16:22;;;;;;;9.60;9.50;;;;;;;;;;5025318;28;20069;-43
2021/11/07 06:18:49;;;;;;;14.07;13.98;;;;;;;;;;5024970;28;20046;-44
2021/11/07 06:21:16;;;;;;;11.73;11.63;;;;;;;;;;5021284;28;20067;-46
2021/11/07 06:23:46;;;;;;;12.52;12.20;;;;;;;;;;5028459;28;20129;-43
2021/11/07 06:26:12;;;;;;;14.10;13.98;;;;;;;;;;5026290;28;20068;-43
2021/11/07 06:28:40;;;;;;;14.43;14.32;;;;;;;;;;5029813;28;20045;-43
2021/11/07 06:31:08;;;;;;;13.77;13.68;;;;;;;;;;5028225;28;20120;-43
2021/11/07 06:33:35;;;;;;;14.05;13.85;;;;;;;;;;5017790;28;20110;-45
2021/11/07 06:36:03;;;;;;;11.07;10.98;;;;;;;;;;5016605;28;20650;-43
2021/11/07 06:38:30;;;;;;;14.57;14.48;;;;;;;;;;5022490;28;20045;-43
2021/11/07 06:40:56;;;;;;;13.23;13.13;;;;;;;;;;5019811;28;20061;-45
2021/11/07 06:43:23;;;;;;;14.15;14.05;;;;;;;;;;5026600;28;20111;-44
2021/11/07 06:45:50;;;;;;;15.23;14.95;;;;;;;;;;5026920;28;20099;-45
2021/11/07 06:48:17;;;;;;;14.40;14.13;;;;;;;;;;5029497;28;20124;-44
2021/11/07 06:50:44;;;;;;;13.07;12.98;;;;;;;;;;5026747;28;20045;-46
2021/11/07 06:53:10;;;;;;;14.20;14.00;;;;;;;;;;5027467;28;20124;-44
2021/11/07 06:55:37;;;;;;;14.02;13.82;;;;;;;;;;5025628;28;20057;-44
2021/11/07 06:58:04;;;;;;;13.18;13.02;;;;;;;;;;5024872;28;20038;-44
2021/11/07 07:00:31;;;;;;;9.50;9.40;;;;;;;;;;5021952;28;20155;-45
2021/11/07 07:02:58;;;;;;;9.40;9.25;;;;;;;;;;5019924;28;20040;-42
2021/11/07 07:05:25;;;;;;;8.95;8.75;;;;;;;;;;5018580;28;20045;-45
2021/11/07 07:07:58;;;;;;;5.03;4.93;;;;;;;;;;5026177;28;20076;-43
2021/11/07 07:10:33;;;;;;;9.93;9.82;;;;;;;;;;5024279;28;20497;-43
2021/11/07 07:13:05;;;;;;;9.52;9.43;;;;;;;;;;5026462;28;20124;-43
2021/11/07 07:15:37;;;;;;;11.98;11.77;;;;;;;;;;5019761;28;20103;-44
2021/11/07 07:18:34;;;;;;;10.48;10.25;;;;;;;;;;5014562;28;20042;-45
2021/11/07 07:33:59;;;;;;;14.23;13.48;;;;;;;;;;5026388;28;20041;-44
2021/11/07 07:36:26;;;;;;;20.70;19.77;;;;;;;;;;5026318;28;20025;-46
2021/11/07 07:38:53;;;;;;;14.18;13.63;;;;;;;;;;5022541;28;20096;-47
2021/11/07 07:41:20;;;;;;;13.10;13.00;;;;;;;;;;5024755;28;20126;-47
2021/11/07 07:43:47;;;;;;;8.73;8.43;;;;;;;;;;5012966;28;20518;-46
2021/11/07 07:46:14;;;;;;;11.68;10.80;;;;;;;;;;5028036;28;20069;-48
2021/11/07 07:48:43;;;;;;;8.00;7.35;;;;;;;;;;5023732;28;20042;-49
2021/11/07 07:51:10;;;;;;;10.73;10.52;;;;;;;;;;5025754;28;20045;-47
2021/11/07 07:53:39;;;;;;;8.10;7.75;;;;;;;;;;5025349;28;20713;-48
2021/11/07 07:56:06;;;;;;;7.45;7.35;;;;;;;;;;5028039;28;20100;-47
2021/11/07 07:58:34;;;;;;;9.10;9.00;;;;;;;;;;5030120;28;20157;-47
2021/11/07 08:01:00;;;;;;;8.27;8.13;;;;;;;;;;5031811;28;20461;-49
2021/11/07 08:03:28;;;;;;;5.18;5.07;;;;;;;;;;5031362;28;20448;-47
2021/11/07 08:05:58;;;;;;;2.58;2.38;;;;;;;;;;5029597;28;20069;-46
2021/11/07 08:08:25;;;;;;;19.70;17.67;;;;;;;;;;5021472;28;20046;-47
2021/11/07 08:10:52;;;;;;;9.40;8.57;;;;;;;;;;5025107;28;20540;-47
2021/11/07 08:13:18;;;;;;;2.67;2.58;;;;;;;;;;5018970;28;20029;-48
2021/11/07 08:15:45;;;;;;;1.85;1.75;;;;;;;;;;5030792;28;20113;-50
2021/11/07 08:18:12;;;;;;;3.40;3.20;;;;;;;;;;5030192;28;20049;-47
2021/11/07 08:20:42;;;;;;;4.38;4.28;;;;;;;;;;5025011;28;20104;-48
2021/11/07 08:23:09;;;;;;;2.80;2.60;;;;;;;;;;5029328;28;20064;-47
2021/11/07 08:25:36;;;;;;;5.38;2.80;;;;;;;;;;5018405;28;20077;-47
2021/11/07 08:28:05;;;;;;;1.67;1.60;;;;;;;;;;5030556;28;20072;-46
2021/11/07 08:30:33;;;;;;;1.48;1.48;;;;;;;;;;5029654;28;20033;-48
2021/11/07 08:33:00;;;;;;;1.00;1.00;;;;;;;;;;5027226;28;20076;-48
2021/11/07 08:35:27;;;;;;;1.10;1.10;;;;;;;;;;5027637;28;20268;-49
2021/11/07 08:38:07;;;;;;;2.15;1.40;;;;;;;;;;5030521;28;20053;-49
2021/11/07 08:40:49;;;;;;;1.15;1.10;;;;;;;;;;5030814;28;20035;-49
2021/11/07 09:05:04;;;;;;;1.88;1.67;;;;;;;;;;5027164;28;20065;-47
2021/11/07 09:10:07;;;;;;;3.13;1.45;;;;;;;;;;5028990;28;20041;-50
2021/11/07 09:12:34;;;;;;;1.45;1.45;;;;;;;;;;5023802;28;20045;-46
2021/11/07 09:15:01;;;;;;;1.33;1.33;;;;;;;;;;5023226;28;20065;-46
2021/11/07 09:17:29;;;;;;;1.70;1.70;;;;;;;;;;5027201;28;20582;-46
2021/11/07 09:19:57;;;;;;;3.00;2.90;;;;;;;;;;5025940;28;20385;-46
2021/11/07 09:22:46;;;;;;;1.85;1.75;;;;;;;;;;5028042;28;20041;-47
2021/11/07 09:25:21;;;;;;;2.33;2.10;;;;;;;;;;5027636;28;20033;-46
2021/11/07 09:27:52;;;;;;;1.75;1.75;;;;;;;;;;5013337;28;20058;-48
2021/11/07 09:30:38;;;;;;;2.58;2.35;;;;;;;;;;5025846;28;20048;-47
2021/11/07 09:38:16;;;;;;;1.95;1.90;;;;;;;;;;5026302;28;20104;-46
2021/11/07 09:40:58;;;;;;;1.88;1.67;;;;;;;;;;5017483;28;20042;-46
2021/11/07 09:43:47;;;;;;;1.13;1.13;;;;;;;;;;5029654;28;20501;-46
2021/11/07 09:49:10;;;;;;;1.93;1.83;;;;;;;;;;5014876;28;20041;-49
2021/11/07 09:51:39;;;;;;;1.13;1.13;;;;;;;;;;5027760;28;20057;-46
2021/11/07 09:54:06;;;;;;;1.25;1.25;;;;;;;;;;5028750;28;20045;-46
2021/11/07 09:56:33;;;;;;;1.38;1.38;;;;;;;;;;5021089;28;20573;-47
2021/11/07 09:59:01;;;;;;;1.63;1.10;;;;;;;;;;5027314;28;20050;-47
2021/11/07 10:01:29;;;;;;;1.50;1.40;;;;;;;;;;5028617;28;20034;-50
2021/11/07 10:04:16;;;;;;;2.65;1.50;;;;;;;;;;5027989;28;20048;-47
2021/11/07 10:06:49;;;;;;;1.20;1.20;;;;;;;;;;5200542;22;20035;-48
2021/11/07 10:09:32;;;;;;;1.15;1.05;;;;;;;;;;5002321;28;20050;-49
2021/11/07 10:12:08;;;;;;;1.73;1.67;;;;;;;;;;5006214;28;20118;-48
2021/11/07 10:14:40;;;;;;;1.85;1.80;;;;;;;;;;4998123;28;20532;-48
2021/11/07 10:17:27;;;;;;;1.48;1.45;;;;;;;;;;5004901;28;20058;-48
2021/11/07 10:19:59;;;;;;;2.05;1.20;;;;;;;;;;5003964;28;20465;-47
2021/11/07 10:22:29;;;;;;;3.38;3.17;;;;;;;;;;5008977;28;20446;-48
2021/11/07 10:24:56;;;;;;;2.70;1.23;;;;;;;;;;5006261;28;20469;-48
2021/11/07 10:27:23;;;;;;;1.10;1.10;;;;;;;;;;5008460;28;20034;-49
2021/11/07 10:29:53;;;;;;;0.95;0.95;;;;;;;;;;5009175;28;20476;-48
2021/11/07 10:32:21;;;;;;;4.75;2.05;;;;;;;;;;5006446;28;20050;-47
2021/11/07 10:45:27;;;;;;;2.80;1.30;;;;;;;;;;5005423;28;20044;-47
2021/11/07 10:53:18;;;;;;;1.45;1.45;;;;;;;;;;5006217;28;20433;-45
2021/11/07 10:55:47;;;;;;;2.35;2.00;;;;;;;;;;5009186;28;20034;-46
2021/11/07 10:58:14;;;;;;;1.52;1.50;;;;;;;;;;5002850;28;20060;-45
2021/11/07 11:00:45;;;;;;;1.85;1.40;;;;;;;;;;5002081;28;20096;-46
2021/11/07 11:03:17;;;;;;;2.58;1.00;;;;;;;;;;5005761;28;20060;-45
2021/11/07 11:05:51;;;;;;;0.90;0.90;;;;;;;;;;5004023;28;20046;-45
2021/11/07 11:08:23;;;;;;;1.40;1.00;;;;;;;;;;4991006;28;20469;-45
2021/11/07 11:13:50;;;;;;;1.00;1.00;;;;;;;;;;4986843;28;20034;-45
2021/11/07 11:30:10;;;;;;;1.20;1.10;;;;;;;;;;4987998;28;20039;-45
2021/11/07 11:35:17;;;;;;;0.90;0.90;;;;;;;;;;4981585;28;20038;-46
2021/11/07 11:43:09;;;;;;;1.50;1.35;;;;;;;;;;4982117;28;20478;-46
2021/11/07 11:45:40;;;;;;;4.70;4.30;;;;;;;;;;4990374;28;20126;-46
2021/11/07 11:53:27;;;;;;;7.00;1.60;;;;;;;;;;4988810;28;20042;-42
2021/11/07 11:59:10;;;;;;;3.25;2.08;;;;;;;;;;4988055;28;20042;-46
2021/11/07 12:01:42;;;;;;;3.47;2.35;;;;;;;;;;4987297;28;20062;-44
2021/11/07 12:04:35;;;;;;;1.85;1.75;;;;;;;;;;4985860;28;20038;-45
2021/11/07 12:07:22;;;;;;;1.42;1.02;;;;;;;;;;4986860;28;20521;-42
2021/11/07 12:12:51;;;;;;;1.65;1.00;;;;;;;;;;4950940;29;20075;-44
2021/11/07 12:17:48;;;;;;;1.10;1.10;;;;;;;;;;4950355;29;20055;-43
2021/11/07 12:20:21;;;;;;;2.63;0.90;;;;;;;;;;4941400;29;20575;-45
2021/11/07 12:22:48;;;;;;;;;;;;;;;;;;4949355;29;20074;-43
2021/11/07 12:25:15;;;;;;;0.80;0.80;;;;;;;;;;4949714;29;19981;-43
2021/11/07 12:27:52;;;;;;;1.33;0.88;;;;;;;;;;4949953;29;20043;-43
2021/11/07 12:30:25;;;;;;;0.95;0.95;;;;;;;;;;4948688;29;20051;-43
2021/11/07 12:33:01;;;;;;;0.90;0.90;;;;;;;;;;4942601;29;20554;-42
2021/11/07 12:35:37;;;;;;;3.35;0.95;;;;;;;;;;4950091;29;20483;-42
2021/11/07 12:41:10;;;;;;;1.70;0.90;;;;;;;;;;4949850;29;20059;-43
2021/11/07 12:43:41;;;;;;;4.05;0.90;;;;;;;;;;4949364;29;20051;-42
2021/11/07 12:46:14;;;;;;;1.95;0.80;;;;;;;;;;4950880;29;20494;-43
2021/11/07 12:48:41;;;;;;;;;;;;;;;;;;4950154;28;20411;-43
2021/11/07 12:51:10;;;;;;;1.90;0.80;;;;;;;;;;4990469;28;19922;-43
2021/11/07 12:53:57;;;;;;;3.13;0.90;;;;;;;;;;4992174;28;20501;-43
2021/11/07 12:56:30;;;;;;;0.90;0.90;;;;;;;;;;4989981;28;20066;-43
2021/11/07 12:58:57;;;;;;;1.02;0.90;;;;;;;;;;4987603;28;20050;-43
2021/11/07 13:01:24;;;;;;;1.58;1.58;;;;;;;;;;4991220;28;20066;-43
2021/11/07 13:03:53;;;;;;;1.00;1.00;;;;;;;;;;4990183;28;20045;-43
2021/11/07 13:06:20;;;;;;;2.53;2.38;;;;;;;;;;4990024;28;20077;-43
2021/11/07 13:08:49;;;;;;;2.35;1.83;;;;;;;;;;4987209;28;20666;-45
2021/11/07 13:11:24;;;;;;;1.77;1.67;;;;;;;;;;4978197;28;20070;-42
2021/11/07 13:14:03;;;;;;;1.77;1.73;;;;;;;;;;4980708;28;20027;-43
2021/11/07 13:27:00;;;;;;;1.10;1.10;;;;;;;;;;4985711;28;20046;-43
2021/11/07 13:34:34;;;;;;;7.38;6.78;;;;;;;;;;4990344;28;20038;-45
2021/11/07 13:37:03;;;;;;;3.38;3.15;;;;;;;;;;4987738;28;20050;-43
2021/11/07 13:39:32;;;;;;;8.88;8.25;;;;;;;;;;4990045;28;20042;-43
2021/11/07 13:42:11;;;;;;;5.95;5.47;;;;;;;;;;4985759;28;20116;-45
2021/11/07 13:44:46;;;;;;;3.10;2.90;;;;;;;;;;4983028;28;20049;-45
2021/11/07 13:47:13;;;;;;;3.05;2.95;;;;;;;;;;4989126;28;20050;-44
2021/11/07 13:49:50;;;;;;;8.82;8.23;;;;;;;;;;4986224;28;20085;-45
2021/11/07 13:52:17;;;;;;;2.63;2.08;;;;;;;;;;4982280;28;20043;-44
2021/11/07 13:54:44;;;;;;;2.35;2.15;;;;;;;;;;4987725;28;20046;-44
2021/11/07 13:57:11;;;;;;;2.97;1.45;;;;;;;;;;4982436;28;20054;-43
2021/11/07 13:59:40;;;;;;;3.40;1.20;;;;;;;;;;4989667;28;20046;-43
2021/11/07 14:02:12;;;;;;;2.15;1.25;;;;;;;;;;4980414;28;20072;-42
2021/11/07 14:04:40;;;;;;;2.47;1.65;;;;;;;;;;4987336;28;20047;-44
2021/11/07 14:07:11;;;;;;;2.25;1.30;;;;;;;;;;4985816;28;20375;-44
2021/11/07 14:09:53;;;;;;;3.72;1.30;;;;;;;;;;4989600;28;20034;-44
2021/11/07 14:12:27;;;;;;;1.95;0.90;;;;;;;;;;4987852;28;20042;-44
2021/11/07 14:15:09;;;;;;;1.00;1.00;;;;;;;;;;4987248;28;20042;-44
2021/11/07 14:17:36;;;;;;;2.65;1.45;;;;;;;;;;4980210;28;20053;-43
2021/11/07 14:20:06;;;;;;;1.45;1.15;;;;;;;;;;4987862;28;20070;-46
2021/11/07 14:22:34;;;;;;;1.10;1.05;;;;;;;;;;4985265;28;20042;-42
2021/11/07 14:25:02;;;;;;;3.42;1.83;;;;;;;;;;4990143;28;20034;-44
2021/11/07 14:27:34;;;;;;;0.80;0.80;;;;;;;;;;4985791;28;20097;-44
2021/11/07 14:30:06;;;;;;;1.23;1.00;;;;;;;;;;4983652;28;20104;-44
2021/11/07 14:32:39;;;;;;;0.80;0.80;;;;;;;;;;4988983;28;20391;-45
2021/11/07 14:35:21;;;;;;;1.20;1.20;;;;;;;;;;4985889;28;20089;-45
2021/11/07 14:38:03;;;;;;;1.13;1.02;;;;;;;;;;4983236;28;20514;-44
2021/11/07 14:53:45;;;;;;;0.85;0.85;;;;;;;;;;4980284;28;20043;-44
2021/11/07 14:56:29;;;;;;;2.97;0.90;;;;;;;;;;4978739;28;20070;-44
2021/11/07 14:59:11;;;;;;;;;;;;;;;;;;4985612;28;20039;-42
2021/11/07 15:01:42;;;;;;;3.63;0.80;;;;;;;;;;4983599;28;20008;-42
2021/11/07 15:04:16;;;;;;;0.80;0.80;;;;;;;;;;4983648;28;20421;-44
2021/11/07 15:06:56;;;;;;;1.35;0.90;;;;;;;;;;4979068;28;20109;-43
2021/11/07 15:09:46;;;;;;;0.75;0.75;;;;;;;;;;4979936;28;20046;-43
2021/11/07 15:18:15;;;;;;;1.83;1.05;;;;;;;;;;4942116;28;21728;-42
2021/11/07 15:20:50;;;;;;;0.80;0.80;;;;;;;;;;4946038;28;20146;-43
2021/11/07 15:23:28;;;;;;;1.17;0.82;;;;;;;;;;4942937;28;20496;-42
2021/11/07 15:25:59;;;;;;;1.30;1.00;;;;;;;;;;4943797;28;20079;-42
2021/11/07 15:28:28;;;;;;;5.65;1.48;;;;;;;;;;4943607;29;20400;-42
2021/11/07 15:30:56;;;;;;;0.95;0.80;;;;;;;;;;4933995;28;20079;-42
2021/11/07 15:33:23;;;;;;;1.80;1.05;;;;;;;;;;4940867;28;20211;-44
2021/11/07 15:35:53;;;;;;;0.90;0.90;;;;;;;;;;4943056;29;20046;-42
2021/11/07 15:38:24;;;;;;;1.08;0.80;;;;;;;;;;4941361;29;20051;-43
2021/11/07 15:40:53;;;;;;;1.17;1.00;;;;;;;;;;4946815;29;20050;-43
2021/11/07 15:43:19;;;;;;;1.33;1.00;;;;;;;;;;4944140;29;20406;-43
2021/11/07 15:45:57;;;;;;;1.20;0.80;;;;;;;;;;4948206;29;20134;-44
2021/11/07 15:48:27;;;;;;;2.47;0.80;;;;;;;;;;4945728;29;20039;-45
2021/11/07 16:06:32;;;;;;;3.30;0.80;;;;;;;;;;4987133;28;20097;-44
2021/11/07 16:11:41;;;;;;;1.92;0.93;;;;;;;;;;4987019;28;20097;-43
2021/11/07 16:19:13;;;;;;;2.00;1.90;;;;;;;;;;4990835;28;20410;-44
2021/11/07 16:21:50;;;;;;;3.95;3.33;;;;;;;;;;4985966;28;20072;-43
2021/11/07 16:24:21;;;;;;;7.55;7.05;;;;;;;;;;4989322;28;20034;-42
2021/11/07 16:26:53;;;;;;;16.15;13.50;;;;;;;;;;4988011;28;20458;-45
2021/11/07 16:29:25;;;;;;;4.65;3.03;;;;;;;;;;4987675;28;20427;-44
2021/11/07 16:34:35;;;;;;;3.25;2.95;;;;;;;;;;4987681;28;20425;-46
2021/11/07 16:37:04;;;;;;;3.95;3.65;;;;;;;;;;4990833;28;20038;-43
2021/11/07 16:39:35;;;;;;;2.88;2.38;;;;;;;;;;4990319;28;20109;-43
2021/11/07 16:42:09;;;;;;;1.92;1.83;;;;;;;;;;4981013;28;20778;-44
2021/11/07 16:44:38;;;;;;;1.92;1.83;;;;;;;;;;4991831;28;20441;-43
2021/11/07 16:47:11;;;;;;;3.33;1.52;;;;;;;;;;4982657;28;20367;-42
2021/11/07 16:49:38;;;;;;;;;;;;;;;;;;4983956;28;20046;-44
2021/11/07 16:54:38;;;;;;;0.90;0.90;;;;;;;;;;4982671;28;20085;-44
2021/11/07 16:57:05;;;;;;;8.43;7.78;;;;;;;;;;4985393;28;20061;-43
2021/11/07 17:04:34;;;;;;;33.88;27.67;;;;;;;;;;4984631;28;20402;-43
2021/11/07 17:07:26;;;;;;;31.05;24.75;;;;;;;;;;4984635;28;20054;-42
2021/11/07 17:09:59;;;;;;;47.92;36.08;;;;;;;;;;4983409;28;20734;-43
2021/11/07 17:12:29;;;;;;;29.50;25.55;;;;;;;;;;4982271;28;20088;-43
2021/11/07 17:15:09;;;;;;;18.52;15.55;;;;;;;;;;4985523;28;20042;-46
2021/11/07 17:23:19;;;;;;;11.82;10.75;;;;;;;;;;4974346;28;20514;-43
2021/11/07 17:30:50;;;;;;;15.55;11.05;;;;;;;;;;4979766;28;20038;-42
2021/11/07 17:49:34;;;;;;;15.48;14.00;;;;;;;;;;4931790;29;20115;-42
2021/11/07 17:54:51;;;;;;;50.47;36.33;;;;;;;;;;4931276;28;20063;-42
2021/11/07 17:57:20;;;;;;;55.08;40.05;;;;;;;;;;4941891;28;20136;-41
2021/11/07 17:59:47;;;;;;;65.13;47.28;;;;;;;;;;4941655;28;20035;-43
2021/11/07 18:02:14;;;;;;;47.75;34.30;;;;;;;;;;4939271;28;20119;-42
2021/11/07 18:04:45;;;;;;;44.45;34.15;;;;;;;;;;4938006;28;20120;-42
2021/11/07 18:07:51;;;;;;;10.35;9.45;;;;;;;;;;4941869;28;20060;-41
2021/11/07 18:10:09;;;;;;;21.63;12.73;;;;;;;;;;4944175;29;20511;-46
2021/11/07 18:12:36;;;;;;;22.95;20.63;;;;;;;;;;4939701;28;20087;-43
2021/11/07 18:15:06;;;;;;;25.90;18.98;;;;;;;;;;4955718;28;20046;-45
2021/11/07 18:17:33;;;;;;;40.83;31.85;;;;;;;;;;4986356;28;20517;-44
2021/11/07 18:20:00;;;;;;;35.25;28.25;;;;;;;;;;4984242;28;20089;-45
2021/11/07 18:22:37;;;;;;;42.28;32.28;;;;;;;;;;4989999;28;20042;-44
2021/11/07 18:25:06;;;;;;;45.20;38.17;;;;;;;;;;4986826;28;20041;-43
2021/11/07 18:27:36;;;;;;;38.22;29.52;;;;;;;;;;4982194;28;20145;-44
2021/11/07 18:30:13;;;;;;;29.38;26.15;;;;;;;;;;4988181;28;20042;-43
2021/11/07 18:32:40;;;;;;;26.00;23.20;;;;;;;;;;4987436;28;20043;-43
2021/11/07 18:35:07;;;;;;;22.35;19.98;;;;;;;;;;4988139;28;20462;-44
2021/11/07 18:37:37;;;;;;;19.77;17.70;;;;;;;;;;4983814;28;20039;-44
2021/11/07 18:40:06;;;;;;;20.08;18.15;;;;;;;;;;4972977;28;20069;-44
2021/11/07 18:42:33;;;;;;;7.00;6.43;;;;;;;;;;4986517;28;20062;-44